Aviation Digital Data Service (ADDS)

Output produced by METARs form (1421 UTC 19 January 2019)
found at http://www.aviationweather.gov/metar/data/
 
METAR text: LFMN 191400Z 29012KT 9999 FEW026 BKN066 09/04 Q1013 NOSIG
Conditions at: LFMN (NICE/COTE D'AZUR, FR) observed 1400 UTC 19 January 2019
Temperature: 9.0°C (48°F)
Dewpoint: 4.0°C (39°F) [RH = 71%]
Pressure (altimeter): 29.91 inches Hg (1013.0 mb)
Winds: from the WNW (290 degrees) at 14 MPH (12 knots; 6.2 m/s)
Visibility: 6 or more miles (10+ km)
Ceiling: 6600 feet AGL
Clouds: few clouds at 2600 feet AGL
broken clouds at 6600 feet AGL
Weather: no significant weather observed at this time

METAR text: LFMN 191330Z 26015KT 9999 FEW026 BKN066 10/05 Q1013 NOSIG
Conditions at: LFMN (NICE/COTE D'AZUR, FR) observed 1330 UTC 19 January 2019
Temperature: 10.0°C (50°F)
Dewpoint: 5.0°C (41°F) [RH = 71%]
Pressure (altimeter): 29.91 inches Hg (1013.0 mb)
Winds: from the W (260 degrees) at 17 MPH (15 knots; 7.7 m/s)
Visibility: 6 or more miles (10+ km)
Ceiling: 6600 feet AGL
Clouds: few clouds at 2600 feet AGL
broken clouds at 6600 feet AGL
Weather: no significant weather observed at this time

METAR text: LFMN 191300Z 21004KT 9999 FEW026 BKN066 11/03 Q1013 NOSIG
Conditions at: LFMN (NICE/COTE D'AZUR, FR) observed 1300 UTC 19 January 2019
Temperature: 11.0°C (52°F)
Dewpoint: 3.0°C (37°F) [RH = 58%]
Pressure (altimeter): 29.91 inches Hg (1013.0 mb)
Winds: from the SSW (210 degrees) at 5 MPH (4 knots; 2.1 m/s)
Visibility: 6 or more miles (10+ km)
Ceiling: 6600 feet AGL
Clouds: few clouds at 2600 feet AGL
broken clouds at 6600 feet AGL
Weather: no significant weather observed at this time

METAR text: LFMN 191230Z VRB02KT 9999 SCT053 SCT086 11/04 Q1013 NOSIG
Conditions at: LFMN (NICE/COTE D'AZUR, FR) observed 1230 UTC 19 January 2019
Temperature: 11.0°C (52°F)
Dewpoint: 4.0°C (39°F) [RH = 62%]
Pressure (altimeter): 29.91 inches Hg (1013.0 mb)
Winds: variable direction winds at 2 MPH (2 knots; 1.0 m/s)
Visibility: 6 or more miles (10+ km)
Ceiling: at least 12,000 feet AGL
Clouds: scattered clouds at 5300 feet AGL
scattered clouds at 8600 feet AGL
Weather: no significant weather observed at this time

METAR text: LFMN 191200Z VRB02KT 9999 SCT070 SCT090 10/02 Q1013 NOSIG
Conditions at: LFMN (NICE/COTE D'AZUR, FR) observed 1200 UTC 19 January 2019
Temperature: 10.0°C (50°F)
Dewpoint: 2.0°C (36°F) [RH = 57%]
Pressure (altimeter): 29.91 inches Hg (1013.0 mb)
Winds: variable direction winds at 2 MPH (2 knots; 1.0 m/s)
Visibility: 6 or more miles (10+ km)
Ceiling: at least 12,000 feet AGL
Clouds: scattered clouds at 7000 feet AGL
scattered clouds at 9000 feet AGL
Weather: no significant weather observed at this time

METAR text: LFMN 191130Z 33004KT 280V340 9999 SCT056 SCT090 10/01 Q1014 NOSIG
Conditions at: LFMN (NICE/COTE D'AZUR, FR) observed 1130 UTC 19 January 2019
Temperature: 10.0°C (50°F)
Dewpoint: 1.0°C (34°F) [RH = 53%]
Pressure (altimeter): 29.94 inches Hg (1014.0 mb)
Winds: from the NNW (330 degrees) at 5 MPH (4 knots; 2.1 m/s)
Visibility: 6 or more miles (10+ km)
Ceiling: at least 12,000 feet AGL
Clouds: scattered clouds at 5600 feet AGL
scattered clouds at 9000 feet AGL
Weather: no significant weather observed at this time

METAR text: LFMN 191100Z 33006KT 9999 BKN066 BKN200 09/00 Q1014 NOSIG
Conditions at: LFMN (NICE/COTE D'AZUR, FR) observed 1100 UTC 19 January 2019
Temperature: 9.0°C (48°F)
Dewpoint: 0.0°C (32°F) [RH = 53%]
Pressure (altimeter): 29.94 inches Hg (1014.0 mb)
Winds: from the NNW (330 degrees) at 7 MPH (6 knots; 3.1 m/s)
Visibility: 6 or more miles (10+ km)
Ceiling: 6600 feet AGL
Clouds: broken clouds at 6600 feet AGL
broken clouds at 20000 feet AGL
Weather: no significant weather observed at this time

METAR text: LFMN 191030Z 33007KT 9999 BKN063 BKN200 08/M01 Q1014 NOSIG
Conditions at: LFMN (NICE/COTE D'AZUR, FR) observed 1030 UTC 19 January 2019
Temperature: 8.0°C (46°F)
Dewpoint: -1.0°C (30°F) [RH = 53%]
Pressure (altimeter): 29.94 inches Hg (1014.0 mb)
Winds: from the NNW (330 degrees) at 8 MPH (7 knots; 3.6 m/s)
Visibility: 6 or more miles (10+ km)
Ceiling: 6300 feet AGL
Clouds: broken clouds at 6300 feet AGL
broken clouds at 20000 feet AGL
Weather: no significant weather observed at this time

METAR text: LFMN 191000Z 33011KT 9999 BKN063 BKN200 08/M01 Q1014 NOSIG
Conditions at: LFMN (NICE/COTE D'AZUR, FR) observed 1000 UTC 19 January 2019
Temperature: 8.0°C (46°F)
Dewpoint: -1.0°C (30°F) [RH = 53%]
Pressure (altimeter): 29.94 inches Hg (1014.0 mb)
Winds: from the NNW (330 degrees) at 13 MPH (11 knots; 5.7 m/s)
Visibility: 6 or more miles (10+ km)
Ceiling: 6300 feet AGL
Clouds: broken clouds at 6300 feet AGL
broken clouds at 20000 feet AGL
Weather: no significant weather observed at this time

METAR text: LFMN 190930Z 31010KT 9999 BKN063 BKN200 07/M01 Q1014 NOSIG
Conditions at: LFMN (NICE/COTE D'AZUR, FR) observed 0930 UTC 19 January 2019
Temperature: 7.0°C (45°F)
Dewpoint: -1.0°C (30°F) [RH = 57%]
Pressure (altimeter): 29.94 inches Hg (1014.0 mb)
Winds: from the NW (310 degrees) at 12 MPH (10 knots; 5.1 m/s)
Visibility: 6 or more miles (10+ km)
Ceiling: 6300 feet AGL
Clouds: broken clouds at 6300 feet AGL
broken clouds at 20000 feet AGL
Weather: no significant weather observed at this time

METAR text: LFMN 190900Z 34009KT 320V030 9999 SCT063 BKN200 07/M01 Q1014 NOSIG
Conditions at: LFMN (NICE/COTE D'AZUR, FR) observed 0900 UTC 19 January 2019
Temperature: 7.0°C (45°F)
Dewpoint: -1.0°C (30°F) [RH = 57%]
Pressure (altimeter): 29.94 inches Hg (1014.0 mb)
Winds: from the NNW (340 degrees) at 10 MPH (9 knots; 4.6 m/s)
Visibility: 6 or more miles (10+ km)
Ceiling: 20000 feet AGL
Clouds: scattered clouds at 6300 feet AGL
broken clouds at 20000 feet AGL
Weather: no significant weather observed at this time

METAR text: LFMN 190830Z 34008KT 9999 SCT063 SCT100 BKN200 07/M01 Q1014 NOSIG
Conditions at: LFMN (NICE/COTE D'AZUR, FR) observed 0830 UTC 19 January 2019
Temperature: 7.0°C (45°F)
Dewpoint: -1.0°C (30°F) [RH = 57%]
Pressure (altimeter): 29.94 inches Hg (1014.0 mb)
Winds: from the NNW (340 degrees) at 9 MPH (8 knots; 4.1 m/s)
Visibility: 6 or more miles (10+ km)
Ceiling: 20000 feet AGL
Clouds: scattered clouds at 6300 feet AGL
scattered clouds at 10000 feet AGL
broken clouds at 20000 feet AGL
Weather: no significant weather observed at this time

METAR text: LFMN 190800Z 33008KT 9999 SCT063 SCT100 BKN200 07/M01 Q1013 NOSIG
Conditions at: LFMN (NICE/COTE D'AZUR, FR) observed 0800 UTC 19 January 2019
Temperature: 7.0°C (45°F)
Dewpoint: -1.0°C (30°F) [RH = 57%]
Pressure (altimeter): 29.91 inches Hg (1013.0 mb)
Winds: from the NNW (330 degrees) at 9 MPH (8 knots; 4.1 m/s)
Visibility: 6 or more miles (10+ km)
Ceiling: 20000 feet AGL
Clouds: scattered clouds at 6300 feet AGL
scattered clouds at 10000 feet AGL
broken clouds at 20000 feet AGL
Weather: no significant weather observed at this time

METAR text: LFMN 190730Z 35007KT 9999 SCT063 BKN200 06/M01 Q1013 NOSIG
Conditions at: LFMN (NICE/COTE D'AZUR, FR) observed 0730 UTC 19 January 2019
Temperature: 6.0°C (43°F)
Dewpoint: -1.0°C (30°F) [RH = 61%]
Pressure (altimeter): 29.91 inches Hg (1013.0 mb)
Winds: from the N (350 degrees) at 8 MPH (7 knots; 3.6 m/s)
Visibility: 6 or more miles (10+ km)
Ceiling: 20000 feet AGL
Clouds: scattered clouds at 6300 feet AGL
broken clouds at 20000 feet AGL
Weather: no significant weather observed at this time

METAR text: LFMN 190700Z 34009KT 9999 SCT063 BKN200 06/M01 Q1013 NOSIG
Conditions at: LFMN (NICE/COTE D'AZUR, FR) observed 0700 UTC 19 January 2019
Temperature: 6.0°C (43°F)
Dewpoint: -1.0°C (30°F) [RH = 61%]
Pressure (altimeter): 29.91 inches Hg (1013.0 mb)
Winds: from the NNW (340 degrees) at 10 MPH (9 knots; 4.6 m/s)
Visibility: 6 or more miles (10+ km)
Ceiling: 20000 feet AGL
Clouds: scattered clouds at 6300 feet AGL
broken clouds at 20000 feet AGL
Weather: no significant weather observed at this time

METAR text: LFMN 190630Z 34007KT 9999 BKN053 BKN160 06/M01 Q1013 NOSIG
Conditions at: LFMN (NICE/COTE D'AZUR, FR) observed 0630 UTC 19 January 2019
Temperature: 6.0°C (43°F)
Dewpoint: -1.0°C (30°F) [RH = 61%]
Pressure (altimeter): 29.91 inches Hg (1013.0 mb)
Winds: from the NNW (340 degrees) at 8 MPH (7 knots; 3.6 m/s)
Visibility: 6 or more miles (10+ km)
Ceiling: 5300 feet AGL
Clouds: broken clouds at 5300 feet AGL
broken clouds at 16000 feet AGL
Weather: no significant weather observed at this time

METAR text: LFMN 190600Z 34009KT 9999 FEW053 BKN170 06/M01 Q1013 NOSIG
Conditions at: LFMN (NICE/COTE D'AZUR, FR) observed 0600 UTC 19 January 2019
Temperature: 6.0°C (43°F)
Dewpoint: -1.0°C (30°F) [RH = 61%]
Pressure (altimeter): 29.91 inches Hg (1013.0 mb)
Winds: from the NNW (340 degrees) at 10 MPH (9 knots; 4.6 m/s)
Visibility: 6 or more miles (10+ km)
Ceiling: 17000 feet AGL
Clouds: few clouds at 5300 feet AGL
broken clouds at 17000 feet AGL
Weather: no significant weather observed at this time

METAR text: LFMN 190530Z 34007KT CAVOK 06/M01 Q1013 NOSIG
Conditions at: LFMN (NICE/COTE D'AZUR, FR) observed 0530 UTC 19 January 2019
Temperature: 6.0°C (43°F)
Dewpoint: -1.0°C (30°F) [RH = 61%]
Pressure (altimeter): 29.91 inches Hg (1013.0 mb)
Winds: from the NNW (340 degrees) at 8 MPH (7 knots; 3.6 m/s)
Visibility: 6 or more miles (10+ km)
Ceiling: ceiling and visibility are OK
Clouds: unknown
Weather: no significant weather observed at this time

METAR text: LFMN 190500Z 34009KT CAVOK 06/M01 Q1013 NOSIG
Conditions at: LFMN (NICE/COTE D'AZUR, FR) observed 0500 UTC 19 January 2019
Temperature: 6.0°C (43°F)
Dewpoint: -1.0°C (30°F) [RH = 61%]
Pressure (altimeter): 29.91 inches Hg (1013.0 mb)
Winds: from the NNW (340 degrees) at 10 MPH (9 knots; 4.6 m/s)
Visibility: 6 or more miles (10+ km)
Ceiling: ceiling and visibility are OK
Clouds: unknown
Weather: no significant weather observed at this time

METAR text: LFMN 190430Z 34008KT CAVOK 06/M01 Q1013 NOSIG
Conditions at: LFMN (NICE/COTE D'AZUR, FR) observed 0430 UTC 19 January 2019
Temperature: 6.0°C (43°F)
Dewpoint: -1.0°C (30°F) [RH = 61%]
Pressure (altimeter): 29.91 inches Hg (1013.0 mb)
Winds: from the NNW (340 degrees) at 9 MPH (8 knots; 4.1 m/s)
Visibility: 6 or more miles (10+ km)
Ceiling: ceiling and visibility are OK
Clouds: unknown
Weather: no significant weather observed at this time

METAR text: LFMN 190400Z 34009KT CAVOK 06/M01 Q1013 NOSIG
Conditions at: LFMN (NICE/COTE D'AZUR, FR) observed 0400 UTC 19 January 2019
Temperature: 6.0°C (43°F)
Dewpoint: -1.0°C (30°F) [RH = 61%]
Pressure (altimeter): 29.91 inches Hg (1013.0 mb)
Winds: from the NNW (340 degrees) at 10 MPH (9 knots; 4.6 m/s)
Visibility: 6 or more miles (10+ km)
Ceiling: ceiling and visibility are OK
Clouds: unknown
Weather: no significant weather observed at this time

METAR text: LFMN 190330Z 34009KT CAVOK 06/M01 Q1013 NOSIG
Conditions at: LFMN (NICE/COTE D'AZUR, FR) observed 0330 UTC 19 January 2019
Temperature: 6.0°C (43°F)
Dewpoint: -1.0°C (30°F) [RH = 61%]
Pressure (altimeter): 29.91 inches Hg (1013.0 mb)
Winds: from the NNW (340 degrees) at 10 MPH (9 knots; 4.6 m/s)
Visibility: 6 or more miles (10+ km)
Ceiling: ceiling and visibility are OK
Clouds: unknown
Weather: no significant weather observed at this time

METAR text: LFMN 190300Z 34009KT CAVOK 06/M01 Q1013 NOSIG
Conditions at: LFMN (NICE/COTE D'AZUR, FR) observed 0300 UTC 19 January 2019
Temperature: 6.0°C (43°F)
Dewpoint: -1.0°C (30°F) [RH = 61%]
Pressure (altimeter): 29.91 inches Hg (1013.0 mb)
Winds: from the NNW (340 degrees) at 10 MPH (9 knots; 4.6 m/s)
Visibility: 6 or more miles (10+ km)
Ceiling: ceiling and visibility are OK
Clouds: unknown
Weather: no significant weather observed at this time

METAR text: LFMN 190230Z 34008KT CAVOK 07/M01 Q1013 NOSIG
Conditions at: LFMN (NICE/COTE D'AZUR, FR) observed 0230 UTC 19 January 2019
Temperature: 7.0°C (45°F)
Dewpoint: -1.0°C (30°F) [RH = 57%]
Pressure (altimeter): 29.91 inches Hg (1013.0 mb)
Winds: from the NNW (340 degrees) at 9 MPH (8 knots; 4.1 m/s)
Visibility: 6 or more miles (10+ km)
Ceiling: ceiling and visibility are OK
Clouds: unknown
Weather: no significant weather observed at this time

METAR text: LFMN 190200Z 33008KT 9999 FEW093 BKN260 07/M01 Q1013 NOSIG
Conditions at: LFMN (NICE/COTE D'AZUR, FR) observed 0200 UTC 19 January 2019
Temperature: 7.0°C (45°F)
Dewpoint: -1.0°C (30°F) [RH = 57%]
Pressure (altimeter): 29.91 inches Hg (1013.0 mb)
Winds: from the NNW (330 degrees) at 9 MPH (8 knots; 4.1 m/s)
Visibility: 6 or more miles (10+ km)
Ceiling: 26000 feet AGL
Clouds: few clouds at 9300 feet AGL
broken clouds at 26000 feet AGL
Weather: no significant weather observed at this time

METAR text: LFMN 190130Z 33008KT 9999 FEW093 BKN260 07/M01 Q1013 NOSIG
Conditions at: LFMN (NICE/COTE D'AZUR, FR) observed 0130 UTC 19 January 2019
Temperature: 7.0°C (45°F)
Dewpoint: -1.0°C (30°F) [RH = 57%]
Pressure (altimeter): 29.91 inches Hg (1013.0 mb)
Winds: from the NNW (330 degrees) at 9 MPH (8 knots; 4.1 m/s)
Visibility: 6 or more miles (10+ km)
Ceiling: 26000 feet AGL
Clouds: few clouds at 9300 feet AGL
broken clouds at 26000 feet AGL
Weather: no significant weather observed at this time

METAR text: LFMN 190100Z 34008KT 9999 BKN093 BKN260 07/M01 Q1013 NOSIG
Conditions at: LFMN (NICE/COTE D'AZUR, FR) observed 0100 UTC 19 January 2019
Temperature: 7.0°C (45°F)
Dewpoint: -1.0°C (30°F) [RH = 57%]
Pressure (altimeter): 29.91 inches Hg (1013.0 mb)
Winds: from the NNW (340 degrees) at 9 MPH (8 knots; 4.1 m/s)
Visibility: 6 or more miles (10+ km)
Ceiling: 9300 feet AGL
Clouds: broken clouds at 9300 feet AGL
broken clouds at 26000 feet AGL
Weather: no significant weather observed at this time

METAR text: LFMN 190030Z 34007KT 9999 BKN093 BKN260 07/M00 Q1013 NOSIG
Conditions at: LFMN (NICE/COTE D'AZUR, FR) observed 0030 UTC 19 January 2019
Temperature: 7.0°C (45°F)
Dewpoint: 0.0°C (32°F) [RH = 61%]
Pressure (altimeter): 29.91 inches Hg (1013.0 mb)
Winds: from the NNW (340 degrees) at 8 MPH (7 knots; 3.6 m/s)
Visibility: 6 or more miles (10+ km)
Ceiling: 9300 feet AGL
Clouds: broken clouds at 9300 feet AGL
broken clouds at 26000 feet AGL
Weather: no significant weather observed at this time

METAR text: LFMN 190000Z 34008KT 9999 BKN093 BKN260 07/M01 Q1013 NOSIG
Conditions at: LFMN (NICE/COTE D'AZUR, FR) observed 0000 UTC 19 January 2019
Temperature: 7.0°C (45°F)
Dewpoint: -1.0°C (30°F) [RH = 57%]
Pressure (altimeter): 29.91 inches Hg (1013.0 mb)
Winds: from the NNW (340 degrees) at 9 MPH (8 knots; 4.1 m/s)
Visibility: 6 or more miles (10+ km)
Ceiling: 9300 feet AGL
Clouds: broken clouds at 9300 feet AGL
broken clouds at 26000 feet AGL
Weather: no significant weather observed at this time

METAR text: LFMN 182330Z 35008KT 9999 BKN093 BKN260 08/M00 Q1013 NOSIG
Conditions at: LFMN (NICE/COTE D'AZUR, FR) observed 2330 UTC 18 January 2019
Temperature: 8.0°C (46°F)
Dewpoint: 0.0°C (32°F) [RH = 57%]
Pressure (altimeter): 29.91 inches Hg (1013.0 mb)
Winds: from the N (350 degrees) at 9 MPH (8 knots; 4.1 m/s)
Visibility: 6 or more miles (10+ km)
Ceiling: 9300 feet AGL
Clouds: broken clouds at 9300 feet AGL
broken clouds at 26000 feet AGL
Weather: no significant weather observed at this time

METAR text: LFMN 182300Z 34008KT 9999 BKN076 BKN260 08/M00 Q1014 NOSIG
Conditions at: LFMN (NICE/COTE D'AZUR, FR) observed 2300 UTC 18 January 2019
Temperature: 8.0°C (46°F)
Dewpoint: 0.0°C (32°F) [RH = 57%]
Pressure (altimeter): 29.94 inches Hg (1014.0 mb)
Winds: from the NNW (340 degrees) at 9 MPH (8 knots; 4.1 m/s)
Visibility: 6 or more miles (10+ km)
Ceiling: 7600 feet AGL
Clouds: broken clouds at 7600 feet AGL
broken clouds at 26000 feet AGL
Weather: no significant weather observed at this time

METAR text: LFMN 182230Z 34008KT 9999 BKN076 BKN260 08/00 Q1014 NOSIG
Conditions at: LFMN (NICE/COTE D'AZUR, FR) observed 2230 UTC 18 January 2019
Temperature: 8.0°C (46°F)
Dewpoint: 0.0°C (32°F) [RH = 57%]
Pressure (altimeter): 29.94 inches Hg (1014.0 mb)
Winds: from the NNW (340 degrees) at 9 MPH (8 knots; 4.1 m/s)
Visibility: 6 or more miles (10+ km)
Ceiling: 7600 feet AGL
Clouds: broken clouds at 7600 feet AGL
broken clouds at 26000 feet AGL
Weather: no significant weather observed at this time

METAR text: LFMN 182200Z 34007KT 9999 BKN076 BKN260 08/00 Q1013 NOSIG
Conditions at: LFMN (NICE/COTE D'AZUR, FR) observed 2200 UTC 18 January 2019
Temperature: 8.0°C (46°F)
Dewpoint: 0.0°C (32°F) [RH = 57%]
Pressure (altimeter): 29.91 inches Hg (1013.0 mb)
Winds: from the NNW (340 degrees) at 8 MPH (7 knots; 3.6 m/s)
Visibility: 6 or more miles (10+ km)
Ceiling: 7600 feet AGL
Clouds: broken clouds at 7600 feet AGL
broken clouds at 26000 feet AGL
Weather: no significant weather observed at this time

METAR text: LFMN 182130Z 33009KT 9999 BKN064 BKN260 08/00 Q1013 NOSIG
Conditions at: LFMN (NICE/COTE D'AZUR, FR) observed 2130 UTC 18 January 2019
Temperature: 8.0°C (46°F)
Dewpoint: 0.0°C (32°F) [RH = 57%]
Pressure (altimeter): 29.91 inches Hg (1013.0 mb)
Winds: from the NNW (330 degrees) at 10 MPH (9 knots; 4.6 m/s)
Visibility: 6 or more miles (10+ km)
Ceiling: 6400 feet AGL
Clouds: broken clouds at 6400 feet AGL
broken clouds at 26000 feet AGL
Weather: no significant weather observed at this time

METAR text: LFMN 182100Z 33008KT 9999 SCT064 BKN260 08/00 Q1013 NOSIG
Conditions at: LFMN (NICE/COTE D'AZUR, FR) observed 2100 UTC 18 January 2019
Temperature: 8.0°C (46°F)
Dewpoint: 0.0°C (32°F) [RH = 57%]
Pressure (altimeter): 29.91 inches Hg (1013.0 mb)
Winds: from the NNW (330 degrees) at 9 MPH (8 knots; 4.1 m/s)
Visibility: 6 or more miles (10+ km)
Ceiling: 26000 feet AGL
Clouds: scattered clouds at 6400 feet AGL
broken clouds at 26000 feet AGL
Weather: no significant weather observed at this time

METAR text: LFMN 182030Z 33008KT 9999 FEW056 SCT260 08/00 Q1013 NOSIG
Conditions at: LFMN (NICE/COTE D'AZUR, FR) observed 2030 UTC 18 January 2019
Temperature: 8.0°C (46°F)
Dewpoint: 0.0°C (32°F) [RH = 57%]
Pressure (altimeter): 29.91 inches Hg (1013.0 mb)
Winds: from the NNW (330 degrees) at 9 MPH (8 knots; 4.1 m/s)
Visibility: 6 or more miles (10+ km)
Ceiling: at least 12,000 feet AGL
Clouds: few clouds at 5600 feet AGL
scattered clouds at 26000 feet AGL
Weather: no significant weather observed at this time

METAR text: LFMN 182000Z 33007KT 9999 FEW056 SCT260 07/00 Q1013 NOSIG
Conditions at: LFMN (NICE/COTE D'AZUR, FR) observed 2000 UTC 18 January 2019
Temperature: 7.0°C (45°F)
Dewpoint: 0.0°C (32°F) [RH = 61%]
Pressure (altimeter): 29.91 inches Hg (1013.0 mb)
Winds: from the NNW (330 degrees) at 8 MPH (7 knots; 3.6 m/s)
Visibility: 6 or more miles (10+ km)
Ceiling: at least 12,000 feet AGL
Clouds: few clouds at 5600 feet AGL
scattered clouds at 26000 feet AGL
Weather: no significant weather observed at this time

METAR text: LFMN 181930Z 33007KT 9999 FEW056 SCT260 07/01 Q1013 NOSIG
Conditions at: LFMN (NICE/COTE D'AZUR, FR) observed 1930 UTC 18 January 2019
Temperature: 7.0°C (45°F)
Dewpoint: 1.0°C (34°F) [RH = 66%]
Pressure (altimeter): 29.91 inches Hg (1013.0 mb)
Winds: from the NNW (330 degrees) at 8 MPH (7 knots; 3.6 m/s)
Visibility: 6 or more miles (10+ km)
Ceiling: at least 12,000 feet AGL
Clouds: few clouds at 5600 feet AGL
scattered clouds at 26000 feet AGL
Weather: no significant weather observed at this time

METAR text: LFMN 181900Z 32006KT 9999 FEW056 SCT260 07/01 Q1013 NOSIG
Conditions at: LFMN (NICE/COTE D'AZUR, FR) observed 1900 UTC 18 January 2019
Temperature: 7.0°C (45°F)
Dewpoint: 1.0°C (34°F) [RH = 66%]
Pressure (altimeter): 29.91 inches Hg (1013.0 mb)
Winds: from the NW (320 degrees) at 7 MPH (6 knots; 3.1 m/s)
Visibility: 6 or more miles (10+ km)
Ceiling: at least 12,000 feet AGL
Clouds: few clouds at 5600 feet AGL
scattered clouds at 26000 feet AGL
Weather: no significant weather observed at this time

METAR text: LFMN 181830Z 33006KT 9999 SCT056 SCT260 08/01 Q1012 NOSIG
Conditions at: LFMN (NICE/COTE D'AZUR, FR) observed 1830 UTC 18 January 2019
Temperature: 8.0°C (46°F)
Dewpoint: 1.0°C (34°F) [RH = 61%]
Pressure (altimeter): 29.88 inches Hg (1012.0 mb)
Winds: from the NNW (330 degrees) at 7 MPH (6 knots; 3.1 m/s)
Visibility: 6 or more miles (10+ km)
Ceiling: at least 12,000 feet AGL
Clouds: scattered clouds at 5600 feet AGL
scattered clouds at 26000 feet AGL
Weather: no significant weather observed at this time

METAR text: LFMN 181800Z 33006KT 9999 SCT056 SCT260 08/01 Q1012 NOSIG
Conditions at: LFMN (NICE/COTE D'AZUR, FR) observed 1800 UTC 18 January 2019
Temperature: 8.0°C (46°F)
Dewpoint: 1.0°C (34°F) [RH = 61%]
Pressure (altimeter): 29.88 inches Hg (1012.0 mb)
Winds: from the NNW (330 degrees) at 7 MPH (6 knots; 3.1 m/s)
Visibility: 6 or more miles (10+ km)
Ceiling: at least 12,000 feet AGL
Clouds: scattered clouds at 5600 feet AGL
scattered clouds at 26000 feet AGL
Weather: no significant weather observed at this time

METAR text: LFMN 181730Z 32005KT 9999 SCT056 SCT260 10/01 Q1012 NOSIG
Conditions at: LFMN (NICE/COTE D'AZUR, FR) observed 1730 UTC 18 January 2019
Temperature: 10.0°C (50°F)
Dewpoint: 1.0°C (34°F) [RH = 53%]
Pressure (altimeter): 29.88 inches Hg (1012.0 mb)
Winds: from the NW (320 degrees) at 6 MPH (5 knots; 2.6 m/s)
Visibility: 6 or more miles (10+ km)
Ceiling: at least 12,000 feet AGL
Clouds: scattered clouds at 5600 feet AGL
scattered clouds at 26000 feet AGL
Weather: no significant weather observed at this time

METAR text: LFMN 181700Z 23005KT 9999 FEW056 SCT260 11/00 Q1012 NOSIG
Conditions at: LFMN (NICE/COTE D'AZUR, FR) observed 1700 UTC 18 January 2019
Temperature: 11.0°C (52°F)
Dewpoint: 0.0°C (32°F) [RH = 47%]
Pressure (altimeter): 29.88 inches Hg (1012.0 mb)
Winds: from the SW (230 degrees) at 6 MPH (5 knots; 2.6 m/s)
Visibility: 6 or more miles (10+ km)
Ceiling: at least 12,000 feet AGL
Clouds: few clouds at 5600 feet AGL
scattered clouds at 26000 feet AGL
Weather: no significant weather observed at this time

METAR text: LFMN 181630Z 22006KT 9999 FEW056 SCT260 12/01 Q1012 NOSIG
Conditions at: LFMN (NICE/COTE D'AZUR, FR) observed 1630 UTC 18 January 2019
Temperature: 12.0°C (54°F)
Dewpoint: 1.0°C (34°F) [RH = 47%]
Pressure (altimeter): 29.88 inches Hg (1012.0 mb)
Winds: from the SW (220 degrees) at 7 MPH (6 knots; 3.1 m/s)
Visibility: 6 or more miles (10+ km)
Ceiling: at least 12,000 feet AGL
Clouds: few clouds at 5600 feet AGL
scattered clouds at 26000 feet AGL
Weather: no significant weather observed at this time

METAR text: LFMN 181530Z 22007KT 9999 FEW056 SCT260 12/01 Q1012 NOSIG
Conditions at: LFMN (NICE/COTE D'AZUR, FR) observed 1530 UTC 18 January 2019
Temperature: 12.0°C (54°F)
Dewpoint: 1.0°C (34°F) [RH = 47%]
Pressure (altimeter): 29.88 inches Hg (1012.0 mb)
Winds: from the SW (220 degrees) at 8 MPH (7 knots; 3.6 m/s)
Visibility: 6 or more miles (10+ km)
Ceiling: at least 12,000 feet AGL
Clouds: few clouds at 5600 feet AGL
scattered clouds at 26000 feet AGL
Weather: no significant weather observed at this time

METAR text: LFMN 181500Z 21008KT 9999 FEW056 13/M00 Q1011 NOSIG
Conditions at: LFMN (NICE/COTE D'AZUR, FR) observed 1500 UTC 18 January 2019
Temperature: 13.0°C (55°F)
Dewpoint: 0.0°C (32°F) [RH = 41%]
Pressure (altimeter): 29.85 inches Hg (1011.0 mb)
Winds: from the SSW (210 degrees) at 9 MPH (8 knots; 4.1 m/s)
Visibility: 6 or more miles (10+ km)
Ceiling: at least 12,000 feet AGL
Clouds: few clouds at 5600 feet AGL
Weather: no significant weather observed at this time

METAR text: LFMN 181430Z 20008KT 9999 FEW056 13/01 Q1011 NOSIG
Conditions at: LFMN (NICE/COTE D'AZUR, FR) observed 1430 UTC 18 January 2019
Temperature: 13.0°C (55°F)
Dewpoint: 1.0°C (34°F) [RH = 44%]
Pressure (altimeter): 29.85 inches Hg (1011.0 mb)
Winds: from the SSW (200 degrees) at 9 MPH (8 knots; 4.1 m/s)
Visibility: 6 or more miles (10+ km)
Ceiling: at least 12,000 feet AGL
Clouds: few clouds at 5600 feet AGL
Weather: no significant weather observed at this time

METAR text: LFMN 181400Z 20007KT 9999 FEW036 SCT093 BKN260 13/01 Q1011 NOSIG
Conditions at: LFMN (NICE/COTE D'AZUR, FR) observed 1400 UTC 18 January 2019
Temperature: 13.0°C (55°F)
Dewpoint: 1.0°C (34°F) [RH = 44%]
Pressure (altimeter): 29.85 inches Hg (1011.0 mb)
Winds: from the SSW (200 degrees) at 8 MPH (7 knots; 3.6 m/s)
Visibility: 6 or more miles (10+ km)
Ceiling: 26000 feet AGL
Clouds: few clouds at 3600 feet AGL
scattered clouds at 9300 feet AGL
broken clouds at 26000 feet AGL
Weather: no significant weather observed at this time

METAR text: LFMN 181330Z 20008KT 9999 FEW036 SCT093 14/03 Q1011 NOSIG
Conditions at: LFMN (NICE/COTE D'AZUR, FR) observed 1330 UTC 18 January 2019
Temperature: 14.0°C (57°F)
Dewpoint: 3.0°C (37°F) [RH = 47%]
Pressure (altimeter): 29.85 inches Hg (1011.0 mb)
Winds: from the SSW (200 degrees) at 9 MPH (8 knots; 4.1 m/s)
Visibility: 6 or more miles (10+ km)
Ceiling: at least 12,000 feet AGL
Clouds: few clouds at 3600 feet AGL
scattered clouds at 9300 feet AGL
Weather: no significant weather observed at this time

METAR text: LFMN 181300Z 22007KT 9999 FEW036 SCT093 13/02 Q1011 NOSIG
Conditions at: LFMN (NICE/COTE D'AZUR, FR) observed 1300 UTC 18 January 2019
Temperature: 13.0°C (55°F)
Dewpoint: 2.0°C (36°F) [RH = 47%]
Pressure (altimeter): 29.85 inches Hg (1011.0 mb)
Winds: from the SW (220 degrees) at 8 MPH (7 knots; 3.6 m/s)
Visibility: 6 or more miles (10+ km)
Ceiling: at least 12,000 feet AGL
Clouds: few clouds at 3600 feet AGL
scattered clouds at 9300 feet AGL
Weather: no significant weather observed at this time

METAR text: LFMN 181230Z 22005KT 9999 FEW036 SCT050 13/03 Q1011 NOSIG
Conditions at: LFMN (NICE/COTE D'AZUR, FR) observed 1230 UTC 18 January 2019
Temperature: 13.0°C (55°F)
Dewpoint: 3.0°C (37°F) [RH = 51%]
Pressure (altimeter): 29.85 inches Hg (1011.0 mb)
Winds: from the SW (220 degrees) at 6 MPH (5 knots; 2.6 m/s)
Visibility: 6 or more miles (10+ km)
Ceiling: at least 12,000 feet AGL
Clouds: few clouds at 3600 feet AGL
scattered clouds at 5000 feet AGL
Weather: no significant weather observed at this time

METAR text: LFMN 181200Z 26006KT 210V320 9999 FEW036 SCT050 13/01 Q1011 NOSIG
Conditions at: LFMN (NICE/COTE D'AZUR, FR) observed 1200 UTC 18 January 2019
Temperature: 13.0°C (55°F)
Dewpoint: 1.0°C (34°F) [RH = 44%]
Pressure (altimeter): 29.85 inches Hg (1011.0 mb)
Winds: from the W (260 degrees) at 7 MPH (6 knots; 3.1 m/s)
Visibility: 6 or more miles (10+ km)
Ceiling: at least 12,000 feet AGL
Clouds: few clouds at 3600 feet AGL
scattered clouds at 5000 feet AGL
Weather: no significant weather observed at this time

METAR text: LFMN 181130Z 32007KT 9999 FEW036 13/M05 Q1011 NOSIG
Conditions at: LFMN (NICE/COTE D'AZUR, FR) observed 1130 UTC 18 January 2019
Temperature: 13.0°C (55°F)
Dewpoint: -5.0°C (23°F) [RH = 28%]
Pressure (altimeter): 29.85 inches Hg (1011.0 mb)
Winds: from the NW (320 degrees) at 8 MPH (7 knots; 3.6 m/s)
Visibility: 6 or more miles (10+ km)
Ceiling: at least 12,000 feet AGL
Clouds: few clouds at 3600 feet AGL
Weather: no significant weather observed at this time

METAR text: LFMN 181100Z 33009KT 9999 FEW036 12/M04 Q1011 NOSIG
Conditions at: LFMN (NICE/COTE D'AZUR, FR) observed 1100 UTC 18 January 2019
Temperature: 12.0°C (54°F)
Dewpoint: -4.0°C (25°F) [RH = 32%]
Pressure (altimeter): 29.85 inches Hg (1011.0 mb)
Winds: from the NNW (330 degrees) at 10 MPH (9 knots; 4.6 m/s)
Visibility: 6 or more miles (10+ km)
Ceiling: at least 12,000 feet AGL
Clouds: few clouds at 3600 feet AGL
Weather: no significant weather observed at this time

METAR text: LFMN 181030Z 33007KT 270V020 9999 FEW036 11/M04 Q1011 NOSIG
Conditions at: LFMN (NICE/COTE D'AZUR, FR) observed 1030 UTC 18 January 2019
Temperature: 11.0°C (52°F)
Dewpoint: -4.0°C (25°F) [RH = 35%]
Pressure (altimeter): 29.85 inches Hg (1011.0 mb)
Winds: from the NNW (330 degrees) at 8 MPH (7 knots; 3.6 m/s)
Visibility: 6 or more miles (10+ km)
Ceiling: at least 12,000 feet AGL
Clouds: few clouds at 3600 feet AGL
Weather: no significant weather observed at this time

METAR text: LFMN 181000Z 33007KT 9999 FEW036 10/M04 Q1011 NOSIG
Conditions at: LFMN (NICE/COTE D'AZUR, FR) observed 1000 UTC 18 January 2019
Temperature: 10.0°C (50°F)
Dewpoint: -4.0°C (25°F) [RH = 37%]
Pressure (altimeter): 29.85 inches Hg (1011.0 mb)
Winds: from the NNW (330 degrees) at 8 MPH (7 knots; 3.6 m/s)
Visibility: 6 or more miles (10+ km)
Ceiling: at least 12,000 feet AGL
Clouds: few clouds at 3600 feet AGL
Weather: no significant weather observed at this time

METAR text: LFMN 180930Z 34007KT 9999 FEW036 09/M04 Q1011 NOSIG
Conditions at: LFMN (NICE/COTE D'AZUR, FR) observed 0930 UTC 18 January 2019
Temperature: 9.0°C (48°F)
Dewpoint: -4.0°C (25°F) [RH = 40%]
Pressure (altimeter): 29.85 inches Hg (1011.0 mb)
Winds: from the NNW (340 degrees) at 8 MPH (7 knots; 3.6 m/s)
Visibility: 6 or more miles (10+ km)
Ceiling: at least 12,000 feet AGL
Clouds: few clouds at 3600 feet AGL
Weather: no significant weather observed at this time

METAR text: LFMN 180900Z 34007KT 9999 FEW036 08/M03 Q1011 NOSIG
Conditions at: LFMN (NICE/COTE D'AZUR, FR) observed 0900 UTC 18 January 2019
Temperature: 8.0°C (46°F)
Dewpoint: -3.0°C (27°F) [RH = 46%]
Pressure (altimeter): 29.85 inches Hg (1011.0 mb)
Winds: from the NNW (340 degrees) at 8 MPH (7 knots; 3.6 m/s)
Visibility: 6 or more miles (10+ km)
Ceiling: at least 12,000 feet AGL
Clouds: few clouds at 3600 feet AGL
Weather: no significant weather observed at this time

METAR text: LFMN 180830Z 34009KT 9999 FEW020 08/M04 Q1011 NOSIG
Conditions at: LFMN (NICE/COTE D'AZUR, FR) observed 0830 UTC 18 January 2019
Temperature: 8.0°C (46°F)
Dewpoint: -4.0°C (25°F) [RH = 42%]
Pressure (altimeter): 29.85 inches Hg (1011.0 mb)
Winds: from the NNW (340 degrees) at 10 MPH (9 knots; 4.6 m/s)
Visibility: 6 or more miles (10+ km)
Ceiling: at least 12,000 feet AGL
Clouds: few clouds at 2000 feet AGL
Weather: no significant weather observed at this time

METAR text: LFMN 180800Z 35008KT 9999 FEW020 07/M04 Q1010 NOSIG
Conditions at: LFMN (NICE/COTE D'AZUR, FR) observed 0800 UTC 18 January 2019
Temperature: 7.0°C (45°F)
Dewpoint: -4.0°C (25°F) [RH = 45%]
Pressure (altimeter): 29.82 inches Hg (1010.0 mb)
Winds: from the N (350 degrees) at 9 MPH (8 knots; 4.1 m/s)
Visibility: 6 or more miles (10+ km)
Ceiling: at least 12,000 feet AGL
Clouds: few clouds at 2000 feet AGL
Weather: no significant weather observed at this time

METAR text: LFMN 180730Z 35009KT 9999 FEW020 06/M03 Q1010 NOSIG
Conditions at: LFMN (NICE/COTE D'AZUR, FR) observed 0730 UTC 18 January 2019
Temperature: 6.0°C (43°F)
Dewpoint: -3.0°C (27°F) [RH = 52%]
Pressure (altimeter): 29.82 inches Hg (1010.0 mb)
Winds: from the N (350 degrees) at 10 MPH (9 knots; 4.6 m/s)
Visibility: 6 or more miles (10+ km)
Ceiling: at least 12,000 feet AGL
Clouds: few clouds at 2000 feet AGL
Weather: no significant weather observed at this time

METAR text: LFMN 180700Z 34009KT 9999 FEW020 06/M03 Q1010 NOSIG
Conditions at: LFMN (NICE/COTE D'AZUR, FR) observed 0700 UTC 18 January 2019
Temperature: 6.0°C (43°F)
Dewpoint: -3.0°C (27°F) [RH = 52%]
Pressure (altimeter): 29.82 inches Hg (1010.0 mb)
Winds: from the NNW (340 degrees) at 10 MPH (9 knots; 4.6 m/s)
Visibility: 6 or more miles (10+ km)
Ceiling: at least 12,000 feet AGL
Clouds: few clouds at 2000 feet AGL
Weather: no significant weather observed at this time

METAR text: LFMN 180630Z 34010KT 9999 FEW020 06/M03 Q1009 NOSIG
Conditions at: LFMN (NICE/COTE D'AZUR, FR) observed 0630 UTC 18 January 2019
Temperature: 6.0°C (43°F)
Dewpoint: -3.0°C (27°F) [RH = 52%]
Pressure (altimeter): 29.79 inches Hg (1009.0 mb)
Winds: from the NNW (340 degrees) at 12 MPH (10 knots; 5.1 m/s)
Visibility: 6 or more miles (10+ km)
Ceiling: at least 12,000 feet AGL
Clouds: few clouds at 2000 feet AGL
Weather: no significant weather observed at this time

METAR text: LFMN 180600Z 34011KT 9999 FEW020 07/M02 Q1009 NOSIG
Conditions at: LFMN (NICE/COTE D'AZUR, FR) observed 0600 UTC 18 January 2019
Temperature: 7.0°C (45°F)
Dewpoint: -2.0°C (28°F) [RH = 53%]
Pressure (altimeter): 29.79 inches Hg (1009.0 mb)
Winds: from the NNW (340 degrees) at 13 MPH (11 knots; 5.7 m/s)
Visibility: 6 or more miles (10+ km)
Ceiling: at least 12,000 feet AGL
Clouds: few clouds at 2000 feet AGL
Weather: no significant weather observed at this time

METAR text: LFMN 180530Z 34009KT 9999 FEW040 06/M02 Q1009 NOSIG
Conditions at: LFMN (NICE/COTE D'AZUR, FR) observed 0530 UTC 18 January 2019
Temperature: 6.0°C (43°F)
Dewpoint: -2.0°C (28°F) [RH = 56%]
Pressure (altimeter): 29.79 inches Hg (1009.0 mb)
Winds: from the NNW (340 degrees) at 10 MPH (9 knots; 4.6 m/s)
Visibility: 6 or more miles (10+ km)
Ceiling: at least 12,000 feet AGL
Clouds: few clouds at 4000 feet AGL
Weather: no significant weather observed at this time

METAR text: LFMN 180500Z 32008KT 9999 FEW040 07/M00 Q1009 NOSIG
Conditions at: LFMN (NICE/COTE D'AZUR, FR) observed 0500 UTC 18 January 2019
Temperature: 7.0°C (45°F)
Dewpoint: 0.0°C (32°F) [RH = 61%]
Pressure (altimeter): 29.79 inches Hg (1009.0 mb)
Winds: from the NW (320 degrees) at 9 MPH (8 knots; 4.1 m/s)
Visibility: 6 or more miles (10+ km)
Ceiling: at least 12,000 feet AGL
Clouds: few clouds at 4000 feet AGL
Weather: no significant weather observed at this time

METAR text: LFMN 180430Z 33009KT 9999 FEW040 07/M02 Q1008 NOSIG
Conditions at: LFMN (NICE/COTE D'AZUR, FR) observed 0430 UTC 18 January 2019
Temperature: 7.0°C (45°F)
Dewpoint: -2.0°C (28°F) [RH = 53%]
Pressure (altimeter): 29.76 inches Hg (1008.0 mb)
Winds: from the NNW (330 degrees) at 10 MPH (9 knots; 4.6 m/s)
Visibility: 6 or more miles (10+ km)
Ceiling: at least 12,000 feet AGL
Clouds: few clouds at 4000 feet AGL
Weather: no significant weather observed at this time

METAR text: LFMN 180400Z 33010KT 9999 FEW040 06/M02 Q1009 NOSIG
Conditions at: LFMN (NICE/COTE D'AZUR, FR) observed 0400 UTC 18 January 2019
Temperature: 6.0°C (43°F)
Dewpoint: -2.0°C (28°F) [RH = 56%]
Pressure (altimeter): 29.79 inches Hg (1009.0 mb)
Winds: from the NNW (330 degrees) at 12 MPH (10 knots; 5.1 m/s)
Visibility: 6 or more miles (10+ km)
Ceiling: at least 12,000 feet AGL
Clouds: few clouds at 4000 feet AGL
Weather: no significant weather observed at this time

METAR text: LFMN 180330Z 34009KT 9999 FEW040 07/M01 Q1009 NOSIG
Conditions at: LFMN (NICE/COTE D'AZUR, FR) observed 0330 UTC 18 January 2019
Temperature: 7.0°C (45°F)
Dewpoint: -1.0°C (30°F) [RH = 57%]
Pressure (altimeter): 29.79 inches Hg (1009.0 mb)
Winds: from the NNW (340 degrees) at 10 MPH (9 knots; 4.6 m/s)
Visibility: 6 or more miles (10+ km)
Ceiling: at least 12,000 feet AGL
Clouds: few clouds at 4000 feet AGL
Weather: no significant weather observed at this time

METAR text: LFMN 180300Z 34010KT 9999 FEW040 07/M01 Q1008 NOSIG
Conditions at: LFMN (NICE/COTE D'AZUR, FR) observed 0300 UTC 18 January 2019
Temperature: 7.0°C (45°F)
Dewpoint: -1.0°C (30°F) [RH = 57%]
Pressure (altimeter): 29.76 inches Hg (1008.0 mb)
Winds: from the NNW (340 degrees) at 12 MPH (10 knots; 5.1 m/s)
Visibility: 6 or more miles (10+ km)
Ceiling: at least 12,000 feet AGL
Clouds: few clouds at 4000 feet AGL
Weather: no significant weather observed at this time

METAR text: LFMN 180230Z 33009KT 9999 FEW026 06/00 Q1009 NOSIG
Conditions at: LFMN (NICE/COTE D'AZUR, FR) observed 0230 UTC 18 January 2019
Temperature: 6.0°C (43°F)
Dewpoint: 0.0°C (32°F) [RH = 65%]
Pressure (altimeter): 29.79 inches Hg (1009.0 mb)
Winds: from the NNW (330 degrees) at 10 MPH (9 knots; 4.6 m/s)
Visibility: 6 or more miles (10+ km)
Ceiling: at least 12,000 feet AGL
Clouds: few clouds at 2600 feet AGL
Weather: no significant weather observed at this time

Forecast for: LFMN (NICE/COTE D'AZUR, FR)
Text: TAF LFMN 191400Z 1915/2021 24010KT 9999 FEW026 BKN066 BKN200
Forecast period: 1500 to 1900 UTC 19 January 2019
Forecast type: FROM: standard forecast or significant change
Winds: from the WSW (240 degrees) at 12 MPH (10 knots; 5.1 m/s)
Visibility: 6 or more miles 10+ km)
Ceiling: 6600 feet AGL
Clouds: few clouds at 2600 feet AGL
broken clouds at 6600 feet AGL
broken clouds at 20000 feet AGL
Weather: no significant weather forecast for this period
Text: PROB30
Forecast period: 1600 to 2200 UTC 19 January 2019
Forecast type: TEMPORARY: The following changes expected for less than half the time period
Visibility: 4 miles (7 km)
Ceiling: 2300 feet AGL
Clouds: broken clouds at 2300 feet AGL
Weather: RA  (moderate rain)
Text: TEMPO 1916/1922 7000 RA BKN023
Forecast period: 1900 UTC 19 January 2019 to 1100 UTC 20 January 2019
Forecast type: BECOMING: Conditions expected to become as follows by 2100 UTC 19 January 2019
Winds: from the NNW (340 degrees) at 9 MPH (8 knots; 4.1 m/s)
Visibility: 6 or more miles 10+ km)
Ceiling: 6600 feet AGL
Clouds: few clouds at 2600 feet AGL
broken clouds at 6600 feet AGL
broken clouds at 20000 feet AGL
Weather: no significant weather forecast for this period
Text: BECMG 1919/1921 34008KT
Forecast period: 1100 to 1800 UTC 20 January 2019
Forecast type: BECOMING: Conditions expected to become as follows by 1300 UTC 20 January 2019
Winds: from the SE (140 degrees) at 12 MPH (10 knots; 5.1 m/s)
Visibility: 6 or more miles 10+ km)
Ceiling: 6600 feet AGL
Clouds: few clouds at 2600 feet AGL
broken clouds at 6600 feet AGL
broken clouds at 20000 feet AGL
Weather: no significant weather forecast for this period
Text: BECMG 2011/2013 14010KT
Forecast period: 1800 to 2100 UTC 20 January 2019
Forecast type: BECOMING: Conditions expected to become as follows by 2000 UTC 20 January 2019
Winds: from the NNW (340 degrees) at 12 MPH (10 knots; 5.1 m/s)
Visibility: 6 or more miles 10+ km)
Ceiling: 6600 feet AGL
Clouds: few clouds at 2600 feet AGL
broken clouds at 6600 feet AGL
broken clouds at 20000 feet AGL
Weather: no significant weather forecast for this period